createdAt,value
2023-06-22T00:01:52.705Z,101783.72
2023-06-22T00:04:22.702Z,101790.21
2023-06-22T00:06:53.254Z,101793.56
2023-06-22T00:09:23.826Z,101792.01
2023-06-22T00:11:54.637Z,101793.58
2023-06-22T00:14:25.069Z,101794.77
2023-06-22T00:16:55.921Z,101790.06
2023-06-22T00:19:25.934Z,101790.38
2023-06-22T00:21:56.699Z,101788.75
2023-06-22T00:24:27.564Z,101789.63
2023-06-22T00:26:58.101Z,101785.35
2023-06-22T00:29:28.953Z,101782.71
2023-06-22T00:31:59.129Z,101777.37
2023-06-22T00:34:29.781Z,101772.48
2023-06-22T00:37:00.266Z,101772.47
2023-06-22T00:39:30.907Z,101771.52
2023-06-22T00:42:01.106Z,101768.24
2023-06-22T00:44:31.505Z,101763.64
2023-06-22T00:47:01.740Z,101759.40
2023-06-22T00:49:31.785Z,101751.78
2023-06-22T00:52:02.029Z,101753.40
2023-06-22T00:54:32.667Z,101757.34
2023-06-22T00:57:03.188Z,101762.03
2023-06-22T00:59:33.528Z,101754.90
2023-06-22T01:02:03.783Z,101750.68
2023-06-22T01:04:34.220Z,101748.87
2023-06-22T01:07:04.255Z,101746.99
2023-06-22T01:09:34.973Z,101745.66
2023-06-22T01:12:05.554Z,101741.19
2023-06-22T01:14:36.210Z,101730.57
2023-06-22T01:17:06.795Z,101723.32
2023-06-22T01:19:37.011Z,101727.49
2023-06-22T01:22:07.510Z,101740.04
2023-06-22T01:24:38.122Z,101745.86
2023-06-22T01:27:08.163Z,101739.89
2023-06-22T01:29:38.601Z,101736.39
2023-06-22T01:32:09.808Z,101735.55
2023-06-22T01:34:39.451Z,101737.42
2023-06-22T01:37:09.496Z,101740.12
2023-06-22T01:39:39.767Z,101739.85
2023-06-22T01:42:10.500Z,101736.24
2023-06-22T01:44:40.962Z,101740.65
2023-06-22T01:47:11.892Z,101741.60
2023-06-22T01:49:42.629Z,101742.91
2023-06-22T01:52:13.215Z,101744.58
2023-06-22T01:54:43.648Z,101747.65
2023-06-22T01:57:14.395Z,101748.60
2023-06-22T01:59:45.001Z,101745.51
2023-06-22T02:02:15.581Z,101743.25
2023-06-22T02:04:46.309Z,101740.94
2023-06-22T02:07:16.877Z,101738.79
2023-06-22T02:09:47.226Z,101735.23
2023-06-22T02:12:17.225Z,101734.35
2023-06-22T02:14:47.546Z,101737.45
2023-06-22T02:17:18.192Z,101734.47
2023-06-22T02:19:48.690Z,101737.15
2023-06-22T02:22:19.119Z,101737.31
2023-06-22T02:24:49.242Z,101734.96
2023-06-22T02:27:19.306Z,101734.38
2023-06-22T02:29:49.945Z,101730.93
2023-06-22T02:32:20.644Z,101728.52
2023-06-22T02:34:51.231Z,101729.98
2023-06-22T02:37:21.485Z,101733.06
2023-06-22T02:39:51.716Z,101731.67
2023-06-22T02:42:21.812Z,101733.94
2023-06-22T02:44:52.228Z,101737.86
2023-06-22T02:47:22.743Z,101738.91
2023-06-22T02:49:53.521Z,101733.05
2023-06-22T02:52:23.869Z,101738.45
2023-06-22T02:54:54.402Z,101743.64
2023-06-22T02:57:24.845Z,101747.05
2023-06-22T02:59:55.196Z,101747.94
2023-06-22T03:02:25.245Z,101750.30
2023-06-22T03:04:55.754Z,101746.67
2023-06-22T03:07:26.570Z,101745.03
2023-06-22T03:09:56.403Z,101742.71
2023-06-22T03:12:26.339Z,101740.18
2023-06-22T03:14:56.901Z,101740.47
2023-06-22T03:17:27.601Z,101743.71
2023-06-22T03:19:57.627Z,101747.87
2023-06-22T03:22:28.317Z,101746.13
2023-06-22T03:24:58.761Z,101744.98
2023-06-22T03:27:29.182Z,101747.55
2023-06-22T03:29:59.849Z,101745.32
2023-06-22T03:32:29.936Z,101746.47
2023-06-22T03:35:00.670Z,101748.63
2023-06-22T03:37:30.887Z,101752.09
2023-06-22T03:40:00.942Z,101752.77
2023-06-22T03:42:31.302Z,101752.63
2023-06-22T03:45:01.360Z,101751.32
2023-06-22T03:47:31.714Z,101747.27
2023-06-22T03:50:02.450Z,101743.64
2023-06-22T03:52:32.683Z,101743.79
2023-06-22T03:55:03.039Z,101746.22
2023-06-22T03:57:33.518Z,101741.35
2023-06-22T04:00:04.018Z,101739.52
2023-06-22T04:02:34.741Z,101738.78
2023-06-22T04:05:05.624Z,101736.85
2023-06-22T04:07:36.105Z,101737.36
2023-06-22T04:10:06.650Z,101739.31
2023-06-22T04:12:37.453Z,101744.63
2023-06-22T04:15:08.280Z,101744.27
2023-06-22T04:17:38.465Z,101742.97
2023-06-22T04:20:08.548Z,101741.44
2023-06-22T04:22:39.412Z,101738.05
2023-06-22T04:25:09.659Z,101736.15
2023-06-22T04:27:40.082Z,101733.87
2023-06-22T04:30:10.885Z,101736.21
2023-06-22T04:32:41.467Z,101736.43
2023-06-22T04:35:12.041Z,101738.71
2023-06-22T04:37:42.425Z,101739.71
2023-06-22T04:40:13.006Z,101740.56
2023-06-22T04:42:43.124Z,101739.94
2023-06-22T04:45:13.245Z,101738.99
2023-06-22T04:47:43.723Z,101742.79
2023-06-22T04:50:14.449Z,101739.76
2023-06-22T04:52:45.117Z,101736.82
2023-06-22T04:55:15.749Z,101733.13
2023-06-22T04:57:45.903Z,101728.74
2023-06-22T05:00:15.900Z,101728.84
2023-06-22T05:02:46.535Z,101725.15
2023-06-22T05:05:16.679Z,101721.49
2023-06-22T05:07:47.260Z,101721.15
2023-06-22T05:10:18.088Z,101716.43
2023-06-22T05:12:48.112Z,101714.22
2023-06-22T05:15:18.374Z,101719.11
2023-06-22T05:17:49.224Z,101720.35
2023-06-22T05:20:19.946Z,101716.65
2023-06-22T05:22:50.782Z,101718.02
2023-06-22T05:25:21.152Z,101715.28
2023-06-22T05:27:51.439Z,101710.80
2023-06-22T05:30:22.401Z,101711.38
2023-06-22T05:32:52.101Z,101713.07
2023-06-22T05:35:23.019Z,101716.08
2023-06-22T05:37:52.995Z,101718.23
2023-06-22T05:40:23.666Z,101718.76
2023-06-22T05:42:53.974Z,101722.16
2023-06-22T05:45:24.151Z,101725.26
2023-06-22T05:47:54.959Z,101728.56
2023-06-22T05:50:25.274Z,101724.78
2023-06-22T05:52:55.925Z,101723.70
2023-06-22T05:55:26.139Z,101720.59
2023-06-22T05:57:56.696Z,101717.89
2023-06-22T06:00:27.238Z,101711.82
2023-06-22T06:02:57.234Z,101715.21
2023-06-22T06:05:27.839Z,101717.55
2023-06-22T06:07:57.851Z,101716.62
2023-06-22T06:10:28.786Z,101719.25
2023-06-22T06:12:59.094Z,101723.70
2023-06-22T06:15:29.377Z,101724.23
2023-06-22T06:18:00.188Z,101723.20
2023-06-22T06:20:30.936Z,101726.18
2023-06-22T06:23:01.513Z,101722.68
2023-06-22T06:25:31.805Z,101719.73
2023-06-22T06:28:01.716Z,101720.35
2023-06-22T06:30:32.676Z,101717.35
2023-06-22T06:33:02.589Z,101723.48
2023-06-22T06:35:33.410Z,101725.71
2023-06-22T06:38:03.527Z,101721.50
2023-06-22T06:40:34.304Z,101720.80
2023-06-22T06:43:04.332Z,101718.46
2023-06-22T06:45:35.047Z,101716.48
2023-06-22T06:48:05.168Z,101716.24
2023-06-22T06:50:35.382Z,101713.34
2023-06-22T06:53:05.605Z,101712.24
2023-06-22T06:55:36.461Z,101715.70
2023-06-22T06:58:06.680Z,101718.88
2023-06-22T07:00:36.965Z,101715.98
2023-06-22T07:03:07.825Z,101712.06
2023-06-22T07:05:38.001Z,101706.76
2023-06-22T07:08:08.728Z,101705.40
2023-06-22T07:10:39.087Z,101708.94
2023-06-22T07:13:09.177Z,101710.98
2023-06-22T07:15:39.426Z,101710.40
2023-06-22T07:18:09.654Z,101709.14
2023-06-22T07:20:39.909Z,101710.71
2023-06-22T07:23:10.127Z,101708.17
2023-06-22T07:25:40.645Z,101698.75
2023-06-22T07:28:10.838Z,101700.38
2023-06-22T07:30:41.764Z,101696.16
2023-06-22T07:33:11.947Z,101699.16
2023-06-22T07:35:42.058Z,101700.98
2023-06-22T07:38:12.241Z,101693.16
2023-06-22T07:40:42.470Z,101690.64
2023-06-22T07:43:12.615Z,101689.02
2023-06-22T07:45:42.900Z,101688.36
2023-06-22T07:48:13.576Z,101685.43
2023-06-22T07:50:43.770Z,101681.60
2023-06-22T07:53:13.936Z,101678.02
2023-06-22T07:55:44.199Z,101673.15
2023-06-22T07:58:14.520Z,101674.75
2023-06-22T08:00:45.360Z,101667.45
2023-06-22T08:03:15.508Z,101670.31
2023-06-22T08:05:45.603Z,101669.16
2023-06-22T08:08:15.818Z,101672.27
2023-06-22T08:10:45.952Z,101665.64
2023-06-22T08:13:16.087Z,101664.22
2023-06-22T08:15:47.981Z,101663.03
2023-06-22T08:18:16.983Z,101664.19
2023-06-22T08:20:47.228Z,101665.75
2023-06-22T08:23:17.855Z,101664.02
2023-06-22T08:25:48.040Z,101661.83
2023-06-22T08:28:18.745Z,101660.32
2023-06-22T08:30:49.462Z,101665.11
2023-06-22T08:33:27.629Z,101662.97
2023-06-22T08:35:49.759Z,101661.03
2023-06-22T08:38:19.924Z,101660.69
2023-06-22T08:40:50.082Z,101655.00
2023-06-22T08:43:20.197Z,101651.83
2023-06-22T08:45:50.382Z,101648.02
2023-06-22T08:48:21.024Z,101648.27
2023-06-22T08:50:51.166Z,101644.00
2023-06-22T08:53:21.851Z,101644.32
2023-06-22T08:55:52.599Z,101644.93
2023-06-22T08:58:22.884Z,101640.55
2023-06-22T09:00:53.034Z,101633.50
2023-06-22T09:03:23.233Z,101629.19
2023-06-22T09:05:53.387Z,101621.68
2023-06-22T09:08:23.395Z,101611.84
2023-06-22T09:10:53.545Z,101608.31
2023-06-22T09:13:23.641Z,101604.36
2023-06-22T09:15:53.775Z,101601.82
2023-06-22T09:18:23.883Z,101600.71
2023-06-22T09:20:54.090Z,101595.10
2023-06-22T09:23:24.726Z,101596.55
2023-06-22T09:25:54.863Z,101589.04
2023-06-22T09:28:24.958Z,101583.95
2023-06-22T09:30:55.694Z,101584.62
2023-06-22T09:33:26.319Z,101579.28
2023-06-22T09:35:56.726Z,101576.48
2023-06-22T09:38:26.833Z,101572.37
2023-06-22T09:40:57.548Z,101574.82
2023-06-22T09:43:27.635Z,101574.07
2023-06-22T09:45:58.335Z,101573.68
2023-06-22T09:48:29.010Z,101576.54
2023-06-22T09:50:59.218Z,101577.71
2023-06-22T09:53:29.238Z,101574.94
2023-06-22T09:55:59.388Z,101574.42
2023-06-22T09:58:29.469Z,101579.23
2023-06-22T10:01:00.160Z,101581.94
2023-06-22T10:03:30.470Z,101588.48
2023-06-22T10:06:00.963Z,101584.54
2023-06-22T10:08:31.619Z,101589.11
2023-06-22T10:11:01.826Z,101588.95
2023-06-22T10:13:31.907Z,101588.91
2023-06-22T10:16:02.068Z,101583.68
2023-06-22T10:18:32.785Z,101579.82
2023-06-22T10:21:02.912Z,101578.28
2023-06-22T10:23:33.604Z,101570.78
2023-06-22T10:26:04.332Z,101567.44
2023-06-22T10:28:34.465Z,101566.16
2023-06-22T10:31:05.195Z,101558.49
2023-06-22T10:33:35.971Z,101559.55
2023-06-22T10:36:06.030Z,101557.07
2023-06-22T10:38:36.200Z,101556.25
2023-06-22T10:41:06.335Z,101553.51
2023-06-22T10:43:36.438Z,101552.83
2023-06-22T10:46:06.553Z,101553.98
2023-06-22T10:48:36.685Z,101552.59
2023-06-22T10:51:06.826Z,101546.62
2023-06-22T10:53:37.518Z,101546.22
2023-06-22T10:56:08.259Z,101543.50
2023-06-22T10:58:38.699Z,101537.08
2023-06-22T11:01:11.117Z,101540.25
2023-06-22T11:03:39.354Z,101545.27
2023-06-22T11:06:09.276Z,101548.87
2023-06-22T11:08:40.470Z,101550.73
2023-06-22T11:11:09.714Z,101552.06
2023-06-22T11:13:40.252Z,101551.61
2023-06-22T11:16:10.966Z,101549.41
2023-06-22T11:18:41.620Z,101548.64
2023-06-22T11:21:11.770Z,101546.82
2023-06-22T11:23:42.459Z,101543.03
2023-06-22T11:26:13.194Z,101537.99
2023-06-22T11:28:43.412Z,101535.45
2023-06-22T11:31:25.239Z,101537.58
2023-06-22T11:33:44.736Z,101536.30
2023-06-22T11:36:14.882Z,101536.93
2023-06-22T11:38:45.018Z,101535.32
2023-06-22T11:41:15.769Z,101530.40
2023-06-22T11:43:45.877Z,101526.50
2023-06-22T11:46:16.586Z,101521.08
2023-06-22T11:48:46.717Z,101513.53
2023-06-22T11:51:16.926Z,101508.30
2023-06-22T11:53:47.524Z,101509.14
2023-06-22T11:56:18.238Z,101505.34
2023-06-22T11:58:48.339Z,101499.81
2023-06-22T12:01:19.030Z,101493.66
2023-06-22T12:03:49.277Z,101493.33
2023-06-22T12:06:19.294Z,101489.68
2023-06-22T12:08:49.358Z,101484.50
2023-06-22T12:11:19.506Z,101481.18
2023-06-22T12:13:49.908Z,101480.13
2023-06-22T12:16:20.188Z,101466.35
2023-06-22T12:18:51.123Z,101462.43
2023-06-22T12:21:21.401Z,101458.56
2023-06-22T12:23:51.559Z,101455.89
2023-06-22T12:26:22.243Z,101454.34
2023-06-22T12:28:52.908Z,101449.45
2023-06-22T12:31:23.462Z,101447.09
2023-06-22T12:33:53.726Z,101449.73
2023-06-22T12:36:24.180Z,101454.72
2023-06-22T12:38:56.501Z,101455.50
2023-06-22T12:41:24.793Z,101452.93
2023-06-22T12:43:55.494Z,101455.06
2023-06-22T12:46:25.616Z,101452.09
2023-06-22T12:48:55.893Z,101449.40
2023-06-22T12:51:26.076Z,101450.97
2023-06-22T12:53:56.491Z,101449.36
2023-06-22T12:56:26.617Z,101452.44
2023-06-22T12:58:57.283Z,101451.81
2023-06-22T13:01:27.530Z,101449.16
2023-06-22T13:03:57.687Z,101446.92
2023-06-22T13:06:28.429Z,101447.71
2023-06-22T13:09:19.502Z,101452.46
2023-06-22T13:11:28.984Z,101452.70
2023-06-22T13:13:59.613Z,101450.74
2023-06-22T13:16:29.775Z,101452.33
2023-06-22T13:18:59.891Z,101456.32
2023-06-22T13:21:30.053Z,101455.81
2023-06-22T13:24:00.169Z,101455.66
2023-06-22T13:26:30.536Z,101452.91
2023-06-22T13:29:01.231Z,101453.19
2023-06-22T13:31:31.374Z,101458.14
2023-06-22T13:34:02.082Z,101461.87
2023-06-22T13:36:32.813Z,101465.03
2023-06-22T13:39:02.937Z,101462.73
2023-06-22T13:41:33.700Z,101462.98
2023-06-22T13:44:04.350Z,101465.47
2023-06-22T13:46:34.558Z,101459.95
2023-06-22T13:49:05.212Z,101460.86
2023-06-22T13:51:35.384Z,101457.10
2023-06-22T13:54:06.699Z,101457.12
2023-06-22T13:56:35.645Z,101454.89
2023-06-22T13:59:06.518Z,101450.73
2023-06-22T14:01:36.487Z,101443.55
2023-06-22T14:04:06.945Z,101437.97
2023-06-22T14:06:37.274Z,101426.28
2023-06-22T14:09:08.184Z,101421.56
2023-06-22T14:11:38.931Z,101418.65
2023-06-22T14:14:09.338Z,101420.43
2023-06-22T14:16:39.519Z,101416.14
2023-06-22T14:19:09.675Z,101407.44
2023-06-22T14:21:39.902Z,101408.25
2023-06-22T14:24:09.912Z,101396.47
2023-06-22T14:26:40.103Z,101389.16
2023-06-22T14:29:10.485Z,101377.93
2023-06-22T14:31:40.944Z,101378.12
2023-06-22T14:34:11.698Z,101378.09
2023-06-22T14:36:41.818Z,101373.66
2023-06-22T14:39:11.919Z,101368.01
2023-06-22T14:41:42.154Z,101369.00
2023-06-22T14:44:12.382Z,101366.06
2023-06-22T14:46:43.180Z,101356.16
2023-06-22T14:49:13.993Z,101343.78
2023-06-22T14:51:44.454Z,101336.92
2023-06-22T14:54:14.986Z,101325.96
2023-06-22T14:56:45.509Z,101315.27
2023-06-22T14:59:16.253Z,101305.55
2023-06-22T15:01:48.168Z,101300.55
2023-06-22T15:04:17.024Z,101304.11
2023-06-22T15:06:47.371Z,101304.05
2023-06-22T15:09:17.617Z,101299.25
2023-06-22T15:11:48.455Z,101299.14
2023-06-22T15:14:19.159Z,101307.79
2023-06-22T15:16:49.543Z,101311.64
2023-06-22T15:19:19.832Z,101306.89
2023-06-22T15:21:49.793Z,101296.90
2023-06-22T15:24:20.564Z,101290.45
2023-06-22T15:26:51.405Z,101284.83
2023-06-22T15:29:21.962Z,101288.17
2023-06-22T15:31:52.282Z,101277.34
2023-06-22T15:34:22.689Z,101263.73
2023-06-22T15:36:53.396Z,101254.30
2023-06-22T15:39:23.479Z,101240.62
2023-06-22T15:41:54.289Z,101238.80
2023-06-22T15:44:25.092Z,101238.77
2023-06-22T15:46:55.986Z,101240.78
2023-06-22T15:49:26.301Z,101247.93
2023-06-22T15:51:57.137Z,101249.50
2023-06-22T15:54:27.355Z,101243.23
2023-06-22T15:56:57.575Z,101239.22
2023-06-22T15:59:28.198Z,101235.78
2023-06-22T16:01:58.739Z,101230.07
2023-06-22T16:04:29.447Z,101226.72
2023-06-22T16:06:59.736Z,101225.23
2023-06-22T16:09:30.605Z,101224.31
2023-06-22T16:12:01.178Z,101225.49
2023-06-22T16:14:31.679Z,101229.94
2023-06-22T16:17:03.010Z,101222.64
2023-06-22T16:19:32.150Z,101213.74
2023-06-22T16:22:02.230Z,101203.99
2023-06-22T16:24:32.381Z,101198.67
2023-06-22T16:27:02.626Z,101182.63
2023-06-22T16:29:33.378Z,101169.79
2023-06-22T16:32:04.021Z,101153.46
2023-06-22T16:34:34.389Z,101148.40
2023-06-22T16:37:04.850Z,101144.53
2023-06-22T16:39:35.060Z,101147.08
2023-06-22T16:42:05.574Z,101144.08
2023-06-22T16:44:35.862Z,101143.15
2023-06-22T16:47:06.145Z,101141.07
2023-06-22T16:49:36.530Z,101150.10
2023-06-22T16:52:07.006Z,101161.11
2023-06-22T16:54:39.833Z,101165.82
2023-06-22T16:57:07.493Z,101165.84
2023-06-22T16:59:38.038Z,101160.38
2023-06-22T17:02:08.554Z,101156.21
2023-06-22T17:04:38.996Z,101152.16
2023-06-22T17:07:09.786Z,101155.23
2023-06-22T17:09:40.009Z,101161.65
2023-06-22T17:12:10.451Z,101162.56
2023-06-22T17:14:40.495Z,101156.87
2023-06-22T17:17:11.315Z,101148.18
2023-06-22T17:19:41.493Z,101149.82
2023-06-22T17:22:11.544Z,101153.02
2023-06-22T17:24:41.785Z,101159.53
2023-06-22T17:27:12.347Z,101174.70
2023-06-22T17:29:43.108Z,101193.26
2023-06-22T17:32:13.923Z,101206.06
2023-06-22T17:34:44.355Z,101217.84
2023-06-22T17:37:14.895Z,101223.66
2023-06-22T17:39:44.922Z,101231.55
2023-06-22T17:42:15.485Z,101242.62
2023-06-22T17:44:46.259Z,101251.58
2023-06-22T17:47:16.890Z,101260.39
2023-06-22T17:49:47.712Z,101276.90
2023-06-22T17:52:18.429Z,101290.38
2023-06-22T17:54:56.564Z,101306.00
2023-06-22T17:57:19.606Z,101314.36
2023-06-22T17:59:49.483Z,101314.33
2023-06-22T18:02:20.137Z,101308.19
2023-06-22T18:04:50.236Z,101290.30
2023-06-22T18:07:20.263Z,101283.87
2023-06-22T18:09:50.279Z,101274.88
2023-06-22T18:12:21.139Z,101270.40
2023-06-22T18:14:52.047Z,101269.41
2023-06-22T18:17:22.192Z,101261.28
2023-06-22T18:19:52.612Z,101254.93
2023-06-22T18:22:22.731Z,101250.39
2023-06-22T18:24:54.366Z,101248.02
2023-06-22T18:27:24.360Z,101241.90
2023-06-22T18:29:54.434Z,101235.97
2023-06-22T18:32:24.896Z,101234.86
2023-06-22T18:34:55.195Z,101235.58
2023-06-22T18:37:25.669Z,101233.72
2023-06-22T18:39:55.820Z,101230.60
2023-06-22T18:42:26.742Z,101231.09
2023-06-22T18:44:57.022Z,101225.77
2023-06-22T18:47:27.443Z,101214.87
2023-06-22T18:49:57.657Z,101212.75
2023-06-22T18:52:28.062Z,101210.73
2023-06-22T18:54:58.633Z,101213.51
2023-06-22T18:57:28.764Z,101217.70
2023-06-22T18:59:59.012Z,101218.56
2023-06-22T19:02:29.558Z,101223.32
2023-06-22T19:05:00.179Z,101224.06
2023-06-22T19:07:41.668Z,101220.05
2023-06-22T19:10:00.769Z,101222.60
2023-06-22T19:12:31.125Z,101230.49
2023-06-22T19:15:01.489Z,101234.48
2023-06-22T19:17:31.670Z,101239.34
2023-06-22T19:20:01.924Z,101238.44
2023-06-22T19:22:32.310Z,101239.53
2023-06-22T19:25:02.679Z,101234.94
2023-06-22T19:27:33.089Z,101237.83
2023-06-22T19:30:03.465Z,101242.19
2023-06-22T19:32:33.890Z,101242.13
2023-06-22T19:35:03.951Z,101245.29
2023-06-22T19:37:34.448Z,101247.93
2023-06-22T19:40:07.306Z,101249.43
2023-06-22T19:42:35.134Z,101244.23
2023-06-22T19:45:05.581Z,101248.12
2023-06-22T19:47:35.622Z,101255.53
2023-06-22T19:50:05.759Z,101252.30
2023-06-22T19:52:35.891Z,101256.64
2023-06-22T19:55:06.215Z,101254.77
2023-06-22T19:57:36.666Z,101262.80
2023-06-22T20:00:07.065Z,101251.63
2023-06-22T20:02:37.579Z,101266.51
2023-06-22T20:05:07.842Z,101265.86
2023-06-22T20:07:37.908Z,101263.98
2023-06-22T20:10:08.319Z,101272.43
2023-06-22T20:12:38.729Z,101291.05
2023-06-22T20:15:08.821Z,101297.07
2023-06-22T20:17:39.378Z,101297.00
2023-06-22T20:20:09.619Z,101299.71
2023-06-22T20:22:40.037Z,101294.89
2023-06-22T20:25:10.410Z,101298.49
2023-06-22T20:27:40.876Z,101301.64
2023-06-22T20:30:11.201Z,101300.14
2023-06-22T20:32:42.122Z,101299.01
2023-06-22T20:35:12.329Z,101306.30
2023-06-22T20:37:42.338Z,101296.54
2023-06-22T20:40:12.708Z,101285.35
2023-06-22T20:42:43.144Z,101276.91
2023-06-22T20:45:13.630Z,101285.48
2023-06-22T20:47:43.978Z,101288.58
2023-06-22T20:50:14.380Z,101286.71
2023-06-22T20:52:44.726Z,101282.02
2023-06-22T20:55:15.124Z,101287.99
2023-06-22T20:57:45.677Z,101278.92
2023-06-22T21:00:15.932Z,101272.87
2023-06-22T21:02:46.252Z,101266.80
2023-06-22T21:05:16.380Z,101254.94
2023-06-22T21:07:46.536Z,101243.21
2023-06-22T21:10:16.885Z,101232.18
2023-06-22T21:12:47.416Z,101225.36
2023-06-22T21:15:17.722Z,101227.08
2023-06-22T21:17:48.143Z,101230.00
2023-06-22T21:20:18.456Z,101232.37
2023-06-22T21:22:48.898Z,101239.76
2023-06-22T21:25:19.231Z,101248.62
2023-06-22T21:27:49.763Z,101261.09
2023-06-22T21:30:20.022Z,101266.33
2023-06-22T21:32:50.540Z,101281.24
2023-06-22T21:35:20.792Z,101281.09
2023-06-22T21:37:50.975Z,101287.86
2023-06-22T21:40:21.414Z,101288.88
2023-06-22T21:42:51.482Z,101308.23
2023-06-22T21:45:21.818Z,101305.62
2023-06-22T21:47:52.173Z,101311.64
2023-06-22T21:50:22.529Z,101311.54
2023-06-22T21:52:52.689Z,101310.84
2023-06-22T21:55:23.036Z,101304.79
2023-06-22T21:57:53.456Z,101306.41
2023-06-22T22:00:24.558Z,101309.60
2023-06-22T22:02:54.821Z,101317.17
2023-06-22T22:05:25.091Z,101320.71
2023-06-22T22:07:55.585Z,101322.49
2023-06-22T22:10:25.847Z,101325.97
2023-06-22T22:12:56.121Z,101317.44
2023-06-22T22:15:26.431Z,101324.57
2023-06-22T22:17:56.969Z,101329.16
2023-06-22T22:20:27.245Z,101326.10
2023-06-22T22:22:57.618Z,101328.53
2023-06-22T22:25:27.978Z,101322.60
2023-06-22T22:27:58.388Z,101325.97
2023-06-22T22:30:28.738Z,101323.53
2023-06-22T22:32:59.194Z,101334.10
2023-06-22T22:35:29.310Z,101330.41
2023-06-22T22:37:59.859Z,101321.33
2023-06-22T22:40:30.251Z,101325.45
2023-06-22T22:43:00.651Z,101327.27
2023-06-22T22:45:31.292Z,101342.16
2023-06-22T22:48:01.542Z,101340.74
2023-06-22T22:50:31.784Z,101347.80
2023-06-22T22:53:02.207Z,101351.03
2023-06-22T22:55:32.778Z,101354.27
2023-06-22T22:58:03.316Z,101358.61
2023-06-22T23:00:33.642Z,101356.51
2023-06-22T23:03:03.898Z,101352.97
2023-06-22T23:05:34.565Z,101349.73
2023-06-22T23:08:04.596Z,101352.69
2023-06-22T23:10:34.707Z,101354.95
2023-06-22T23:13:05.087Z,101361.59
2023-06-22T23:15:35.290Z,101363.27
2023-06-22T23:18:05.264Z,101360.71
2023-06-22T23:20:35.285Z,101367.01
2023-06-22T23:23:05.581Z,101374.47
2023-06-22T23:25:35.698Z,101372.48
2023-06-22T23:28:05.867Z,101384.40
2023-06-22T23:30:35.765Z,101382.62
2023-06-22T23:33:06.257Z,101383.69
2023-06-22T23:35:36.519Z,101385.48
2023-06-22T23:38:06.948Z,101385.42
2023-06-22T23:40:36.944Z,101389.13
2023-06-22T23:43:07.332Z,101399.61
2023-06-22T23:45:37.787Z,101407.00
2023-06-22T23:48:08.053Z,101409.61
2023-06-22T23:50:38.172Z,101417.74
2023-06-22T23:53:08.180Z,101420.29
2023-06-22T23:55:38.460Z,101425.59
2023-06-22T23:58:08.560Z,101428.65
